Time;durP1;ratioP1;P1;durP2;ratioP2;P2;SDS_P1;SDS_P2;PMS_P1;PMS_P2;Temp;Humidity;BMP_temperature;BMP_pressure;BME280_temperature;BME280_humidity;BME280_pressure;Samples;Min_cycle;Max_cycle;Signal;HPM_P1;HPM_P2
2022/05/28 00:00:56;;;;;;;7.30;0.98;;;;;;;;;;5055898;28;20044;-62
2022/05/28 00:03:23;;;;;;;5.20;1.25;;;;;;;;;;5054622;28;20454;-63
2022/05/28 00:05:50;;;;;;;2.15;1.10;;;;;;;;;;5051351;28;20111;-62
2022/05/28 00:08:16;;;;;;;2.08;0.93;;;;;;;;;;5057184;28;20029;-62
2022/05/28 00:10:44;;;;;;;4.22;1.15;;;;;;;;;;5061209;28;20027;-62
2022/05/28 00:13:10;;;;;;;13.52;1.50;;;;;;;;;;5058140;28;20043;-62
2022/05/28 00:15:36;;;;;;;5.53;1.00;;;;;;;;;;5058106;28;20035;-62
2022/05/28 00:18:02;;;;;;;1.95;0.95;;;;;;;;;;5062177;28;20036;-62
2022/05/28 00:20:29;;;;;;;3.97;1.08;;;;;;;;;;5059909;28;20161;-62
2022/05/28 00:22:55;;;;;;;5.78;1.45;;;;;;;;;;5060299;28;20025;-62
2022/05/28 00:25:21;;;;;;;13.10;1.40;;;;;;;;;;5063865;28;20047;-63
2022/05/28 00:27:47;;;;;;;4.95;1.05;;;;;;;;;;5059022;28;20086;-62
2022/05/28 00:30:15;;;;;;;7.93;1.77;;;;;;;;;;5058191;28;20751;-62
2022/05/28 00:32:43;;;;;;;2.08;0.95;;;;;;;;;;5059965;28;20128;-62
2022/05/28 00:35:16;;;;;;;2.00;1.02;;;;;;;;;;5058300;28;20041;-62
2022/05/28 00:37:43;;;;;;;6.53;1.10;;;;;;;;;;5056466;28;20057;-62
2022/05/28 00:40:13;;;;;;;8.23;1.23;;;;;;;;;;5063671;28;20052;-63
2022/05/28 00:42:39;;;;;;;2.60;1.08;;;;;;;;;;5058709;28;20108;-63
2022/05/28 00:45:05;;;;;;;7.22;0.95;;;;;;;;;;5050876;28;20127;-63
2022/05/28 00:47:31;;;;;;;2.65;0.98;;;;;;;;;;5059638;28;20108;-62
2022/05/28 00:49:57;;;;;;;4.95;1.30;;;;;;;;;;5064010;28;20032;-63
2022/05/28 00:52:25;;;;;;;3.30;0.88;;;;;;;;;;5063945;28;20435;-63
2022/05/28 00:54:52;;;;;;;2.83;1.13;;;;;;;;;;5058278;28;20131;-62
2022/05/28 00:57:19;;;;;;;6.47;1.00;;;;;;;;;;5060382;28;20511;-62
2022/05/28 00:59:45;;;;;;;8.80;1.63;;;;;;;;;;5059405;28;20033;-62
2022/05/28 01:02:31;;;;;;;2.72;1.02;;;;;;;;;;5059074;28;20489;-61
2022/05/28 01:05:02;;;;;;;7.20;1.20;;;;;;;;;;5057114;28;20020;-62
2022/05/28 01:07:38;;;;;;;2.42;1.38;;;;;;;;;;5062667;28;20044;-62
2022/05/28 01:10:28;;;;;;;9.68;1.40;;;;;;;;;;5059107;28;20405;-63
2022/05/28 01:13:07;;;;;;;5.03;0.80;;;;;;;;;;5060349;28;20044;-62
2022/05/28 01:15:48;;;;;;;6.72;0.90;;;;;;;;;;5063823;28;20032;-61
2022/05/28 01:18:20;;;;;;;15.13;1.67;;;;;;;;;;5056228;28;20028;-62
2022/05/28 01:20:52;;;;;;;4.30;1.10;;;;;;;;;;5058235;28;20030;-62
2022/05/28 01:23:30;;;;;;;;;;;;;;;;;;5052740;28;20024;-62
2022/05/28 01:26:18;;;;;;;7.10;1.20;;;;;;;;;;5055916;28;19932;-62
2022/05/28 01:28:54;;;;;;;1.52;1.17;;;;;;;;;;5052155;28;20574;-62
2022/05/28 01:31:22;;;;;;;3.85;1.45;;;;;;;;;;5060845;28;20033;-62
2022/05/28 01:33:49;;;;;;;6.35;1.27;;;;;;;;;;5053072;28;20033;-62
2022/05/28 01:36:16;;;;;;;5.55;1.80;;;;;;;;;;5057425;28;20417;-61
2022/05/28 01:38:43;;;;;;;2.40;1.48;;;;;;;;;;5054187;28;20029;-62
2022/05/28 01:41:10;;;;;;;2.50;1.20;;;;;;;;;;5052473;28;20049;-62
2022/05/28 01:43:38;;;;;;;2.47;1.30;;;;;;;;;;5053813;28;20025;-62
2022/05/28 01:46:05;;;;;;;3.15;1.67;;;;;;;;;;5058193;28;20033;-61
2022/05/28 01:48:31;;;;;;;5.75;1.60;;;;;;;;;;5052663;28;20037;-62
2022/05/28 01:51:00;;;;;;;3.60;1.40;;;;;;;;;;5052834;28;20029;-62
2022/05/28 01:56:12;;;;;;;1.73;1.02;;;;;;;;;;5055454;28;20545;-60
2022/05/28 01:58:38;;;;;;;8.32;1.55;;;;;;;;;;5050890;28;20043;-61
2022/05/28 02:01:06;;;;;;;5.55;1.20;;;;;;;;;;5060075;28;20043;-62
2022/05/28 02:03:34;;;;;;;15.65;1.65;;;;;;;;;;5054333;28;20389;-60
2022/05/28 02:06:00;;;;;;;7.18;1.30;;;;;;;;;;5052236;28;20055;-62
2022/05/28 02:08:29;;;;;;;3.53;1.48;;;;;;;;;;5060243;28;20032;-62
2022/05/28 02:11:25;;;;;;;6.35;1.02;;;;;;;;;;5050387;28;20084;-62
2022/05/28 02:14:09;;;;;;;4.43;1.40;;;;;;;;;;5058244;28;20296;-62
2022/05/28 02:16:35;;;;;;;6.55;2.35;;;;;;;;;;5055230;28;20059;-62
2022/05/28 02:19:09;;;;;;;2.92;1.23;;;;;;;;;;5058566;28;20549;-62
2022/05/28 02:21:54;;;;;;;11.52;1.10;;;;;;;;;;5058796;28;20027;-62
2022/05/28 02:24:30;;;;;;;2.97;1.30;;;;;;;;;;5056578;28;20087;-62
2022/05/28 02:27:04;;;;;;;5.78;1.20;;;;;;;;;;5056648;28;20064;-62
2022/05/28 02:29:32;;;;;;;7.40;1.25;;;;;;;;;;5052374;28;20020;-62
2022/05/28 02:31:58;;;;;;;12.48;1.20;;;;;;;;;;5053125;28;20029;-62
2022/05/28 02:34:24;;;;;;;4.15;1.33;;;;;;;;;;5055106;28;20116;-62
2022/05/28 02:36:50;;;;;;;7.82;1.85;;;;;;;;;;5054609;28;20040;-62
2022/05/28 02:39:15;;;;;;;1.17;0.75;;;;;;;;;;5056875;28;20079;-62
2022/05/28 02:41:41;;;;;;;1.48;1.30;;;;;;;;;;5056871;28;20040;-62
2022/05/28 02:44:09;;;;;;;2.55;1.10;;;;;;;;;;5056438;28;20532;-62
2022/05/28 02:46:35;;;;;;;2.60;0.90;;;;;;;;;;5055072;28;20396;-62
2022/05/28 02:49:01;;;;;;;1.95;1.10;;;;;;;;;;5054481;28;20083;-62
2022/05/28 02:51:27;;;;;;;6.25;1.27;;;;;;;;;;5057653;28;20029;-62
2022/05/28 02:53:54;;;;;;;7.82;1.20;;;;;;;;;;5055942;28;20739;-62
2022/05/28 02:56:21;;;;;;;1.23;1.00;;;;;;;;;;5051900;28;20037;-61
2022/05/28 02:58:47;;;;;;;4.43;1.20;;;;;;;;;;5056253;28;20068;-62
2022/05/28 03:01:33;;;;;;;5.03;1.20;;;;;;;;;;5055870;28;20064;-62
2022/05/28 03:03:59;;;;;;;2.50;1.20;;;;;;;;;;5053927;28;20061;-62
2022/05/28 03:06:26;;;;;;;5.43;1.25;;;;;;;;;;5057476;28;20473;-61
2022/05/28 03:08:52;;;;;;;3.85;1.50;;;;;;;;;;5056710;28;20041;-61
2022/05/28 03:11:19;;;;;;;6.82;1.27;;;;;;;;;;5053646;28;20039;-61
2022/05/28 03:13:44;;;;;;;4.70;1.00;;;;;;;;;;5059278;28;20028;-61
2022/05/28 03:16:10;;;;;;;5.88;1.23;;;;;;;;;;5060391;28;20025;-61
2022/05/28 03:18:36;;;;;;;4.20;1.73;;;;;;;;;;5052634;28;20682;-62
2022/05/28 03:21:03;;;;;;;2.17;1.20;;;;;;;;;;5056323;28;20033;-61
2022/05/28 03:23:29;;;;;;;2.75;0.90;;;;;;;;;;5057265;28;20054;-61
2022/05/28 03:25:54;;;;;;;5.03;1.65;;;;;;;;;;5050853;28;20124;-61
2022/05/28 03:28:20;;;;;;;6.55;1.10;;;;;;;;;;5051265;28;20024;-61
2022/05/28 03:30:47;;;;;;;1.73;1.08;;;;;;;;;;5056442;28;20089;-61
2022/05/28 03:33:12;;;;;;;2.03;1.05;;;;;;;;;;5053939;28;20094;-61
2022/05/28 03:35:40;;;;;;;3.97;0.90;;;;;;;;;;5053873;28;20028;-61
2022/05/28 03:38:06;;;;;;;5.05;1.35;;;;;;;;;;5050859;28;20029;-61
2022/05/28 03:40:32;;;;;;;5.82;1.30;;;;;;;;;;5050855;28;20106;-61
2022/05/28 03:42:58;;;;;;;9.75;2.38;;;;;;;;;;5063431;28;20025;-61
2022/05/28 03:45:26;;;;;;;7.38;1.90;;;;;;;;;;5051745;28;20029;-61
2022/05/28 03:47:51;;;;;;;3.00;1.20;;;;;;;;;;5051885;28;20095;-61
2022/05/28 03:50:17;;;;;;;2.13;1.13;;;;;;;;;;5047877;28;20519;-61
2022/05/28 03:52:43;;;;;;;7.10;1.48;;;;;;;;;;5052901;28;20049;-61
2022/05/28 03:55:09;;;;;;;4.05;1.20;;;;;;;;;;5053132;28;20548;-61
2022/05/28 03:57:35;;;;;;;4.88;0.90;;;;;;;;;;5052130;28;20041;-61
2022/05/28 04:00:03;;;;;;;7.88;1.20;;;;;;;;;;5054683;28;20625;-61
2022/05/28 04:02:32;;;;;;;3.40;1.15;;;;;;;;;;5048511;28;20131;-61
2022/05/28 04:04:58;;;;;;;2.38;1.08;;;;;;;;;;5050213;28;20528;-61
2022/05/28 04:07:24;;;;;;;6.18;1.38;;;;;;;;;;5052645;28;20355;-61
2022/05/28 04:09:50;;;;;;;8.80;1.25;;;;;;;;;;5055745;28;20033;-61
2022/05/28 04:12:15;;;;;;;6.53;1.40;;;;;;;;;;5051825;28;20067;-60
2022/05/28 04:14:42;;;;;;;3.58;1.30;;;;;;;;;;5055088;28;20057;-61
2022/05/28 04:17:08;;;;;;;4.10;1.30;;;;;;;;;;5050863;28;20087;-60
2022/05/28 04:19:34;;;;;;;12.60;1.30;;;;;;;;;;5052150;28;20041;-59
2022/05/28 04:21:59;;;;;;;12.45;1.65;;;;;;;;;;5056161;28;20040;-60
2022/05/28 04:24:25;;;;;;;4.97;1.20;;;;;;;;;;5056416;28;20031;-60
2022/05/28 04:26:51;;;;;;;6.13;1.48;;;;;;;;;;5053063;28;20029;-60
2022/05/28 04:29:17;;;;;;;4.63;1.10;;;;;;;;;;5051083;28;20509;-59
2022/05/28 04:31:43;;;;;;;3.33;1.00;;;;;;;;;;5054211;28;20456;-60
2022/05/28 04:34:08;;;;;;;6.70;1.13;;;;;;;;;;5052936;28;20029;-60
2022/05/28 04:36:34;;;;;;;4.82;1.00;;;;;;;;;;5058857;28;20032;-61
2022/05/28 04:39:00;;;;;;;3.03;1.23;;;;;;;;;;5053565;28;20040;-60
2022/05/28 04:41:26;;;;;;;5.38;1.70;;;;;;;;;;5057893;28;20036;-60
2022/05/28 04:43:52;;;;;;;3.08;1.00;;;;;;;;;;5049289;28;20377;-60
2022/05/28 04:46:18;;;;;;;2.00;0.85;;;;;;;;;;5053375;28;20117;-60
2022/05/28 04:48:43;;;;;;;4.35;1.40;;;;;;;;;;5055242;28;20400;-60
2022/05/28 04:51:09;;;;;;;6.82;0.98;;;;;;;;;;5054617;28;20111;-60
2022/05/28 04:53:35;;;;;;;1.58;1.10;;;;;;;;;;5047797;28;20078;-60
2022/05/28 04:56:00;;;;;;;7.43;1.35;;;;;;;;;;5051579;28;20106;-61
2022/05/28 04:58:29;;;;;;;5.40;0.90;;;;;;;;;;5059504;28;20031;-60
2022/05/28 05:00:56;;;;;;;3.53;1.13;;;;;;;;;;5058596;28;20530;-60
2022/05/28 05:03:22;;;;;;;3.30;1.10;;;;;;;;;;5055409;28;20866;-61
2022/05/28 05:05:47;;;;;;;5.82;1.10;;;;;;;;;;5057353;28;20094;-61
2022/05/28 05:08:13;;;;;;;11.15;1.10;;;;;;;;;;5059114;28;20485;-60
2022/05/28 05:10:39;;;;;;;3.08;1.02;;;;;;;;;;5060930;28;20056;-60
2022/05/28 05:13:05;;;;;;;11.13;1.33;;;;;;;;;;5059229;28;20501;-60
2022/05/28 05:15:31;;;;;;;1.20;0.98;;;;;;;;;;5058309;28;20382;-60
2022/05/28 05:17:57;;;;;;;4.25;0.90;;;;;;;;;;5058792;28;20025;-60
2022/05/28 05:20:23;;;;;;;5.07;1.30;;;;;;;;;;5059450;28;20098;-60
2022/05/28 05:22:52;;;;;;;6.07;1.00;;;;;;;;;;5060480;28;20107;-59
2022/05/28 05:25:18;;;;;;;8.43;1.00;;;;;;;;;;5054960;28;20095;-60
2022/05/28 05:27:43;;;;;;;2.20;0.90;;;;;;;;;;5057786;28;20045;-59
2022/05/28 05:30:10;;;;;;;1.83;1.00;;;;;;;;;;5053065;28;20033;-60
2022/05/28 05:32:35;;;;;;;5.78;1.20;;;;;;;;;;5058140;28;20039;-60
2022/05/28 05:35:01;;;;;;;6.20;1.20;;;;;;;;;;5058714;28;20040;-59
2022/05/28 05:37:27;;;;;;;5.10;1.02;;;;;;;;;;5055350;28;20171;-59
2022/05/28 05:39:53;;;;;;;5.55;1.10;;;;;;;;;;5056537;28;20109;-60
2022/05/28 05:42:19;;;;;;;1.58;1.10;;;;;;;;;;5052666;28;20099;-60
2022/05/28 05:44:45;;;;;;;11.00;1.35;;;;;;;;;;5038966;28;20111;-59
2022/05/28 05:47:10;;;;;;;3.80;1.30;;;;;;;;;;5060375;28;20060;-60
2022/05/28 05:49:36;;;;;;;1.45;0.90;;;;;;;;;;5062006;28;20104;-60
2022/05/28 05:52:04;;;;;;;8.55;1.23;;;;;;;;;;5062731;28;20075;-58
2022/05/28 05:54:30;;;;;;;3.42;1.02;;;;;;;;;;5062788;28;20033;-58
2022/05/28 05:56:56;;;;;;;1.83;1.00;;;;;;;;;;5062432;28;20418;-59
2022/05/28 05:59:23;;;;;;;1.42;1.00;;;;;;;;;;5054272;28;20075;-59
2022/05/28 06:01:49;;;;;;;7.00;1.13;;;;;;;;;;5056714;28;20044;-60
2022/05/28 06:04:15;;;;;;;2.53;1.45;;;;;;;;;;5064013;28;20036;-59
2022/05/28 06:06:41;;;;;;;6.30;1.50;;;;;;;;;;5057205;28;20037;-59
2022/05/28 06:09:07;;;;;;;6.20;1.33;;;;;;;;;;5056036;28;20501;-59
2022/05/28 06:11:33;;;;;;;4.07;1.25;;;;;;;;;;5069336;28;20035;-59
2022/05/28 06:13:59;;;;;;;3.33;1.02;;;;;;;;;;5058803;28;20024;-59
2022/05/28 06:16:25;;;;;;;1.58;0.90;;;;;;;;;;5062273;28;20036;-59
2022/05/28 06:18:51;;;;;;;3.78;1.27;;;;;;;;;;5062413;28;20025;-59
2022/05/28 06:21:17;;;;;;;7.40;1.27;;;;;;;;;;5060405;28;20397;-60
2022/05/28 06:23:42;;;;;;;4.40;1.27;;;;;;;;;;5058416;28;20043;-59
2022/05/28 06:26:10;;;;;;;5.25;1.08;;;;;;;;;;5062256;28;20025;-59
2022/05/28 06:28:36;;;;;;;4.85;1.05;;;;;;;;;;5062272;28;20115;-60
2022/05/28 06:31:07;;;;;;;11.07;1.35;;;;;;;;;;5071557;28;20115;-59
2022/05/28 06:33:35;;;;;;;9.27;1.40;;;;;;;;;;5067833;28;20107;-59
2022/05/28 06:36:03;;;;;;;4.68;1.17;;;;;;;;;;5068079;28;20036;-60
2022/05/28 06:38:29;;;;;;;9.98;1.30;;;;;;;;;;5060865;28;20389;-59
2022/05/28 06:40:55;;;;;;;8.02;1.15;;;;;;;;;;5058073;28;20043;-59
2022/05/28 06:43:21;;;;;;;1.38;0.93;;;;;;;;;;5070621;28;20027;-59
2022/05/28 06:45:47;;;;;;;7.15;1.70;;;;;;;;;;5067259;28;20423;-60
2022/05/28 06:48:13;;;;;;;6.95;1.50;;;;;;;;;;5060516;28;20501;-59
2022/05/28 06:53:24;;;;;;;13.43;1.27;;;;;;;;;;5061999;28;20063;-58
2022/05/28 06:55:51;;;;;;;12.40;1.35;;;;;;;;;;5066181;28;20501;-58
2022/05/28 06:58:16;;;;;;;8.25;1.00;;;;;;;;;;5064567;28;20036;-60
2022/05/28 07:00:42;;;;;;;3.35;1.08;;;;;;;;;;5058800;28;20031;-59
2022/05/28 07:03:21;;;;;;;6.13;1.00;;;;;;;;;;5062620;28;20078;-58
2022/05/28 07:05:47;;;;;;;19.55;1.95;;;;;;;;;;5052284;28;20052;-60
2022/05/28 07:08:13;;;;;;;7.07;1.83;;;;;;;;;;5065678;28;20466;-59
2022/05/28 07:10:43;;;;;;;6.47;1.50;;;;;;;;;;5055775;28;20025;-61
2022/05/28 07:13:10;;;;;;;3.78;1.17;;;;;;;;;;5055352;28;20484;-59
2022/05/28 07:15:36;;;;;;;2.50;1.20;;;;;;;;;;5065557;28;20047;-60
2022/05/28 07:18:02;;;;;;;4.57;1.40;;;;;;;;;;5060619;28;20032;-59
2022/05/28 07:20:28;;;;;;;14.15;1.67;;;;;;;;;;5062773;28;20029;-59
2022/05/28 07:22:54;;;;;;;2.22;1.00;;;;;;;;;;5058882;28;20025;-59
2022/05/28 07:25:20;;;;;;;6.93;1.48;;;;;;;;;;5064261;28;20168;-59
2022/05/28 07:27:45;;;;;;;10.80;1.73;;;;;;;;;;5059146;28;20115;-59
2022/05/28 07:30:11;;;;;;;11.32;1.58;;;;;;;;;;5065353;28;20124;-59
2022/05/28 07:32:37;;;;;;;8.13;1.77;;;;;;;;;;5056102;28;20040;-60
2022/05/28 07:35:04;;;;;;;5.55;1.20;;;;;;;;;;5060493;28;20111;-60
2022/05/28 07:37:31;;;;;;;2.58;1.17;;;;;;;;;;5056023;28;20476;-59
2022/05/28 07:39:58;;;;;;;10.98;1.75;;;;;;;;;;5060660;28;20029;-61
2022/05/28 07:42:24;;;;;;;8.77;1.98;;;;;;;;;;5058512;28;20045;-59
2022/05/28 07:44:49;;;;;;;11.15;2.08;;;;;;;;;;5058385;28;20073;-60
2022/05/28 07:47:16;;;;;;;8.50;1.35;;;;;;;;;;5059993;28;20531;-60
2022/05/28 07:49:41;;;;;;;6.55;1.23;;;;;;;;;;5063477;28;20037;-59
2022/05/28 07:52:08;;;;;;;8.88;1.60;;;;;;;;;;5058452;28;20016;-60
2022/05/28 07:54:34;;;;;;;6.38;1.50;;;;;;;;;;5061294;28;20045;-60
2022/05/28 07:57:00;;;;;;;1.67;1.10;;;;;;;;;;5062291;28;20363;-60
2022/05/28 07:59:25;;;;;;;9.77;1.48;;;;;;;;;;5054731;28;20020;-60
2022/05/28 08:01:51;;;;;;;10.40;1.33;;;;;;;;;;5054183;28;20460;-60
2022/05/28 08:04:17;;;;;;;8.02;1.02;;;;;;;;;;5062430;28;20026;-60
2022/05/28 08:06:43;;;;;;;4.78;1.20;;;;;;;;;;5054841;28;20052;-59
2022/05/28 08:09:11;;;;;;;9.05;1.70;;;;;;;;;;5057134;28;20477;-60
2022/05/28 08:11:38;;;;;;;6.05;1.48;;;;;;;;;;5056724;28;20112;-59
2022/05/28 08:14:04;;;;;;;10.43;1.77;;;;;;;;;;5049805;28;20500;-61
2022/05/28 08:16:30;;;;;;;6.85;1.60;;;;;;;;;;5053574;28;20512;-61
2022/05/28 08:18:56;;;;;;;14.88;1.70;;;;;;;;;;5060915;28;20482;-60
2022/05/28 08:24:07;;;;;;;14.07;2.00;;;;;;;;;;5053333;28;20029;-60
2022/05/28 08:26:35;;;;;;;6.18;1.42;;;;;;;;;;5058292;28;20075;-61
2022/05/28 08:29:02;;;;;;;13.05;1.17;;;;;;;;;;5060984;28;20028;-60
2022/05/28 08:31:27;;;;;;;9.05;1.50;;;;;;;;;;5062487;28;20425;-60
2022/05/28 08:33:54;;;;;;;8.02;1.25;;;;;;;;;;5060553;28;20060;-60
2022/05/28 08:36:20;;;;;;;13.80;1.67;;;;;;;;;;5062060;28;20041;-60
2022/05/28 08:38:46;;;;;;;11.52;1.63;;;;;;;;;;5062074;28;20024;-60
2022/05/28 08:41:15;;;;;;;9.57;1.30;;;;;;;;;;5058819;28;20043;-60
2022/05/28 08:44:14;;;;;;;6.57;1.65;;;;;;;;;;5065734;28;20033;-60
2022/05/28 08:46:43;;;;;;;8.43;1.80;;;;;;;;;;5064549;28;20032;-59
2022/05/28 08:49:11;;;;;;;9.43;1.45;;;;;;;;;;5061317;28;20029;-60
2022/05/28 08:51:37;;;;;;;6.00;1.40;;;;;;;;;;5063243;28;20585;-60
2022/05/28 08:54:05;;;;;;;10.82;1.50;;;;;;;;;;5052480;28;20031;-60
2022/05/28 08:56:33;;;;;;;14.73;2.20;;;;;;;;;;5061751;28;20068;-60
2022/05/28 08:59:06;;;;;;;14.68;1.60;;;;;;;;;;5065423;28;20028;-60
2022/05/28 09:01:35;;;;;;;26.35;2.42;;;;;;;;;;5066302;28;20043;-60
2022/05/28 09:04:05;;;;;;;8.27;2.58;;;;;;;;;;5068852;28;20085;-60
2022/05/28 09:06:40;;;;;;;14.88;1.98;;;;;;;;;;5058226;28;20028;-60
2022/05/28 09:09:08;;;;;;;29.05;1.70;;;;;;;;;;5066348;28;20045;-60
2022/05/28 09:11:46;;;;;;;12.68;1.50;;;;;;;;;;5069613;28;20023;-60
2022/05/28 09:14:12;;;;;;;13.18;1.85;;;;;;;;;;5052147;28;20052;-61
2022/05/28 09:16:40;;;;;;;57.42;3.80;;;;;;;;;;5058491;28;20035;-61
2022/05/28 09:19:13;;;;;;;15.02;1.60;;;;;;;;;;5056907;28;20473;-60
2022/05/28 09:21:40;;;;;;;9.52;2.45;;;;;;;;;;5056169;28;20040;-60
2022/05/28 09:24:12;;;;;;;24.38;2.25;;;;;;;;;;5061155;28;20589;-60
2022/05/28 09:26:59;;;;;;;22.90;2.15;;;;;;;;;;5062601;28;20029;-59
2022/05/28 09:29:49;;;;;;;21.98;1.92;;;;;;;;;;5057031;28;20061;-61
2022/05/28 09:32:53;;;;;;;15.38;1.60;;;;;;;;;;5054423;28;20071;-62
2022/05/28 09:35:38;;;;;;;5.95;1.85;;;;;;;;;;5065034;28;20091;-60
2022/05/28 09:38:03;;;;;;;12.13;2.30;;;;;;;;;;5063597;28;20477;-60
2022/05/28 09:40:51;;;;;;;13.25;1.73;;;;;;;;;;5061564;28;20033;-60
2022/05/28 09:43:32;;;;;;;15.95;2.03;;;;;;;;;;5056557;28;20024;-60
2022/05/28 09:46:06;;;;;;;17.95;2.20;;;;;;;;;;5062900;28;20044;-61
2022/05/28 09:48:32;;;;;;;12.18;2.13;;;;;;;;;;5054741;28;20234;-60
2022/05/28 09:50:58;;;;;;;11.23;1.58;;;;;;;;;;5060905;28;20020;-60
2022/05/28 09:56:36;;;;;;;17.45;1.73;;;;;;;;;;5064629;28;20051;-60
2022/05/28 09:59:23;;;;;;;12.82;1.90;;;;;;;;;;5061245;28;20043;-61
2022/05/28 10:02:07;;;;;;;18.08;2.13;;;;;;;;;;5064823;28;20505;-60
2022/05/28 10:05:04;;;;;;;21.05;2.00;;;;;;;;;;5051910;28;20060;-60
2022/05/28 10:07:37;;;;;;;21.40;2.83;;;;;;;;;;5061557;28;20033;-61
2022/05/28 10:10:16;;;;;;;15.80;2.50;;;;;;;;;;5063654;28;20473;-61
2022/05/28 10:12:42;;;;;;;25.23;2.25;;;;;;;;;;5057147;28;20103;-61
2022/05/28 10:15:11;;;;;;;19.02;1.70;;;;;;;;;;5067373;28;20032;-61
2022/05/28 10:17:37;;;;;;;18.48;2.17;;;;;;;;;;5066252;28;20062;-60
2022/05/28 10:20:14;;;;;;;15.27;2.15;;;;;;;;;;5060794;28;20100;-61
2022/05/28 10:22:40;;;;;;;19.40;2.03;;;;;;;;;;5059282;28;20020;-61
2022/05/28 10:25:22;;;;;;;14.95;1.77;;;;;;;;;;5058610;28;20052;-61
2022/05/28 10:27:50;;;;;;;24.38;2.00;;;;;;;;;;5066165;28;20036;-61
2022/05/28 10:30:42;;;;;;;5.05;1.55;;;;;;;;;;5063282;28;20028;-61
2022/05/28 10:33:14;;;;;;;10.45;1.70;;;;;;;;;;5067782;28;20052;-61
2022/05/28 10:35:40;;;;;;;24.58;3.08;;;;;;;;;;5070385;28;20024;-61
2022/05/28 10:38:25;;;;;;;13.88;1.83;;;;;;;;;;5060486;28;20066;-61
2022/05/28 10:40:52;;;;;;;13.40;1.48;;;;;;;;;;5058157;28;20124;-61
2022/05/28 10:43:49;;;;;;;16.65;1.80;;;;;;;;;;5062374;28;20047;-61
2022/05/28 10:46:39;;;;;;;17.02;1.98;;;;;;;;;;5045559;28;20044;-60
2022/05/28 10:49:11;;;;;;;7.85;1.80;;;;;;;;;;5057976;28;20040;-61
2022/05/28 10:52:11;;;;;;;11.65;2.25;;;;;;;;;;5062023;28;20051;-60
2022/05/28 10:55:04;;;;;;;12.80;2.33;;;;;;;;;;5062764;28;20040;-59
2022/05/28 10:57:58;;;;;;;12.38;1.48;;;;;;;;;;5061822;28;20055;-59
2022/05/28 11:00:52;;;;;;;5.63;1.63;;;;;;;;;;5061924;28;20040;-59
2022/05/28 11:03:55;;;;;;;8.80;1.70;;;;;;;;;;5059168;28;20039;-59
2022/05/28 11:06:45;;;;;;;13.65;1.63;;;;;;;;;;5054438;28;20035;-60
2022/05/28 11:09:22;;;;;;;12.40;2.05;;;;;;;;;;5053800;28;20049;-60
2022/05/28 11:12:18;;;;;;;9.40;1.83;;;;;;;;;;5056182;28;20456;-60
2022/05/28 11:14:53;;;;;;;9.48;2.25;;;;;;;;;;5053837;28;20528;-60
2022/05/28 11:17:25;;;;;;;18.35;2.08;;;;;;;;;;5056902;28;20827;-60
2022/05/28 11:20:11;;;;;;;;;;;;;;;;;;5060661;28;20028;-60
2022/05/28 11:23:16;;;;;;;13.52;2.30;;;;;;;;;;5059413;28;20366;-60
2022/05/28 11:25:42;;;;;;;10.45;1.77;;;;;;;;;;5063456;28;20444;-61
2022/05/28 11:28:35;;;;;;;7.80;1.80;;;;;;;;;;5064656;28;20036;-61
2022/05/28 11:31:44;;;;;;;4.22;1.50;;;;;;;;;;5063309;28;20033;-61
2022/05/28 11:34:19;;;;;;;16.08;1.88;;;;;;;;;;5053572;28;20033;-61
2022/05/28 11:36:53;;;;;;;5.05;1.50;;;;;;;;;;5063445;28;20075;-62
2022/05/28 11:39:32;;;;;;;8.07;1.48;;;;;;;;;;5060325;28;20473;-62
2022/05/28 11:42:32;;;;;;;4.47;1.95;;;;;;;;;;5061032;28;20028;-62
2022/05/28 11:45:01;;;;;;;9.38;1.60;;;;;;;;;;5051505;28;20039;-62
2022/05/28 11:47:36;;;;;;;6.85;2.47;;;;;;;;;;5058767;28;20072;-62
2022/05/28 11:53:17;;;;;;;14.50;1.73;;;;;;;;;;5058377;28;20033;-62
2022/05/28 11:55:46;;;;;;;10.23;1.48;;;;;;;;;;5063110;28;20052;-62
2022/05/28 11:58:19;;;;;;;10.38;1.60;;;;;;;;;;5059013;28;20036;-61
2022/05/28 12:00:59;;;;;;;19.92;2.08;;;;;;;;;;5055433;28;20033;-62
2022/05/28 12:03:27;;;;;;;10.45;1.65;;;;;;;;;;5054104;28;20033;-62
2022/05/28 12:06:14;;;;;;;10.05;1.70;;;;;;;;;;5054093;28;20036;-62
2022/05/28 12:08:41;;;;;;;12.43;1.95;;;;;;;;;;5067152;28;20051;-61
2022/05/28 12:11:31;;;;;;;10.82;1.83;;;;;;;;;;5055921;28;20126;-62
2022/05/28 12:14:00;;;;;;;6.07;1.33;;;;;;;;;;5057806;28;20033;-61
2022/05/28 12:16:32;;;;;;;12.45;2.17;;;;;;;;;;5061764;28;20584;-61
2022/05/28 12:19:02;;;;;;;11.60;1.90;;;;;;;;;;5057077;28;20044;-61
2022/05/28 12:21:32;;;;;;;11.20;1.77;;;;;;;;;;5056032;28;20513;-61
2022/05/28 12:24:27;;;;;;;11.38;1.90;;;;;;;;;;5056474;28;20127;-61
2022/05/28 12:29:32;;;;;;;16.45;1.73;;;;;;;;;;5054009;28;20037;-62
2022/05/28 12:32:27;;;;;;;12.75;1.80;;;;;;;;;;5050849;28;20036;-62
2022/05/28 12:35:24;;;;;;;12.15;1.75;;;;;;;;;;5041526;28;20041;-61
2022/05/28 12:38:10;;;;;;;19.90;2.03;;;;;;;;;;5054266;28;20060;-62
2022/05/28 12:40:56;;;;;;;16.83;2.53;;;;;;;;;;5058086;28;20037;-62
2022/05/28 12:43:36;;;;;;;12.93;1.73;;;;;;;;;;5057617;28;20021;-62
2022/05/28 12:46:19;;;;;;;9.65;1.80;;;;;;;;;;5058189;28;20124;-62
2022/05/28 12:49:08;;;;;;;16.00;1.85;;;;;;;;;;5054385;28;20126;-61
2022/05/28 12:52:17;;;;;;;16.40;1.65;;;;;;;;;;5052160;28;20185;-61
2022/05/28 12:54:43;;;;;;;9.57;1.70;;;;;;;;;;5043571;28;20037;-61
2022/05/28 12:57:26;;;;;;;7.55;1.58;;;;;;;;;;5054467;28;20029;-62
2022/05/28 13:00:12;;;;;;;8.32;2.40;;;;;;;;;;5063781;28;20033;-62
2022/05/28 13:02:45;;;;;;;6.30;1.75;;;;;;;;;;5056513;28;20021;-62
2022/05/28 13:05:16;;;;;;;7.05;1.67;;;;;;;;;;5058377;28;20025;-61
2022/05/28 13:07:52;;;;;;;;;;;;;;;;;;5058556;28;20033;-61
2022/05/28 13:10:24;;;;;;;15.98;2.22;;;;;;;;;;5059334;28;20537;-61
2022/05/28 13:13:21;;;;;;;4.90;1.85;;;;;;;;;;5050376;28;20037;-62
2022/05/28 13:16:27;;;;;;;9.57;1.83;;;;;;;;;;5057442;28;20037;-64
2022/05/28 13:19:17;;;;;;;8.07;1.75;;;;;;;;;;5057837;28;20032;-61
2022/05/28 13:21:43;;;;;;;6.60;1.50;;;;;;;;;;5064423;28;20127;-62
2022/05/28 13:24:11;;;;;;;14.45;1.70;;;;;;;;;;5064468;28;20123;-61
2022/05/28 13:26:52;;;;;;;8.77;1.70;;;;;;;;;;5059947;28;20028;-61
2022/05/28 13:29:39;;;;;;;7.35;1.70;;;;;;;;;;5058193;28;20831;-61
2022/05/28 13:32:14;;;;;;;30.55;2.45;;;;;;;;;;5056012;28;20848;-61
2022/05/28 13:34:40;;;;;;;18.17;2.33;;;;;;;;;;5059050;28;20057;-60
2022/05/28 13:37:17;;;;;;;11.45;1.65;;;;;;;;;;5047994;28;20036;-61
2022/05/28 13:39:46;;;;;;;17.60;1.60;;;;;;;;;;5061573;28;20035;-61
2022/05/28 13:42:13;;;;;;;10.65;1.65;;;;;;;;;;5060038;28;20067;-61
2022/05/28 13:44:45;;;;;;;4.40;1.60;;;;;;;;;;5064358;28;20025;-61
2022/05/28 13:47:11;;;;;;;;;;;;;;;;;;5066043;28;20036;-63
2022/05/28 13:49:37;;;;;;;15.90;1.73;;;;;;;;;;5073584;28;19916;-60
2022/05/28 13:52:11;;;;;;;6.40;1.30;;;;;;;;;;5062768;28;20043;-62
2022/05/28 13:54:36;;;;;;;15.23;1.98;;;;;;;;;;5060548;28;20047;-62
2022/05/28 13:57:06;;;;;;;15.20;2.28;;;;;;;;;;5061486;28;20028;-61
2022/05/28 13:59:39;;;;;;;6.38;1.80;;;;;;;;;;5065394;28;20044;-60
2022/05/28 14:02:16;;;;;;;9.15;2.13;;;;;;;;;;5059171;28;20040;-61
2022/05/28 14:04:44;;;;;;;8.95;2.00;;;;;;;;;;5065418;28;20122;-61
2022/05/28 14:07:21;;;;;;;4.55;1.73;;;;;;;;;;5058828;28;20037;-61
2022/05/28 14:09:48;;;;;;;15.40;1.85;;;;;;;;;;5057013;28;20082;-61
2022/05/28 14:12:13;;;;;;;8.52;1.73;;;;;;;;;;5062109;28;20074;-59
2022/05/28 14:14:45;;;;;;;8.93;1.70;;;;;;;;;;5058561;28;20032;-60
2022/05/28 14:17:32;;;;;;;11.15;1.83;;;;;;;;;;5060573;28;20040;-61
2022/05/28 14:19:59;;;;;;;9.32;1.55;;;;;;;;;;5060873;28;20112;-61
2022/05/28 14:22:34;;;;;;;11.90;1.80;;;;;;;;;;5063943;28;20024;-61
2022/05/28 14:25:06;;;;;;;10.27;1.98;;;;;;;;;;5058652;28;20666;-60
2022/05/28 14:27:34;;;;;;;13.55;1.83;;;;;;;;;;5057337;28;20423;-61
2022/05/28 14:30:01;;;;;;;15.95;2.10;;;;;;;;;;5061695;28;20020;-60
2022/05/28 14:32:39;;;;;;;7.43;1.50;;;;;;;;;;5054736;28;20075;-60
2022/05/28 14:35:19;;;;;;;5.85;1.52;;;;;;;;;;5054574;28;20033;-60
2022/05/28 14:37:45;;;;;;;11.82;1.50;;;;;;;;;;5060642;28;20039;-60
2022/05/28 14:40:21;;;;;;;19.95;2.80;;;;;;;;;;5060847;28;20070;-60
2022/05/28 14:42:48;;;;;;;13.02;2.03;;;;;;;;;;5060283;28;20031;-59
2022/05/28 14:45:46;;;;;;;10.18;2.42;;;;;;;;;;5062412;28;20392;-60
2022/05/28 14:48:24;;;;;;;11.00;1.80;;;;;;;;;;5006452;28;20046;-59
2022/05/28 14:50:53;;;;;;;13.18;2.15;;;;;;;;;;5005824;28;20060;-60
2022/05/28 14:53:28;;;;;;;17.50;1.65;;;;;;;;;;5005582;28;20576;-59
2022/05/28 14:55:53;;;;;;;13.00;1.70;;;;;;;;;;5003301;28;20042;-59
2022/05/28 14:58:21;;;;;;;9.85;1.60;;;;;;;;;;5002631;28;20426;-59
2022/05/28 15:01:03;;;;;;;11.23;1.90;;;;;;;;;;5003018;28;20030;-60
2022/05/28 15:03:31;;;;;;;13.05;1.80;;;;;;;;;;5003282;28;20030;-59
2022/05/28 15:06:12;;;;;;;7.55;1.65;;;;;;;;;;5003992;28;20056;-61
2022/05/28 15:08:46;;;;;;;14.23;1.80;;;;;;;;;;5003278;28;20025;-60
2022/05/28 15:11:23;;;;;;;14.90;1.70;;;;;;;;;;5007220;28;20069;-60
2022/05/28 15:13:49;;;;;;;12.80;1.52;;;;;;;;;;5004525;28;20041;-60
2022/05/28 15:16:15;;;;;;;11.23;1.48;;;;;;;;;;5010346;28;20029;-59
2022/05/28 15:18:41;;;;;;;14.95;2.20;;;;;;;;;;5001786;28;20124;-60
2022/05/28 15:21:07;;;;;;;8.38;1.50;;;;;;;;;;5003301;28;20430;-60
2022/05/28 15:23:33;;;;;;;10.48;1.80;;;;;;;;;;5029484;28;20063;-60